createdAt,value
2023-05-19T00:04:07.708Z,63.70
2023-05-19T00:09:13.377Z,64.10
2023-05-19T00:14:17.923Z,63.30
2023-05-19T00:19:24.536Z,63.70
2023-05-19T00:24:28.671Z,63.50
2023-05-19T00:29:32.094Z,63.50
2023-05-19T00:34:36.905Z,63.60
2023-05-19T00:39:40.664Z,63.60
2023-05-19T00:44:44.216Z,63.60
2023-05-19T00:49:49.340Z,63.70
2023-05-19T00:54:53.525Z,63.60
2023-05-19T00:59:57.532Z,63.50
2023-05-19T01:05:03.484Z,63.40
2023-05-19T01:10:08.219Z,63.50
2023-05-19T01:15:13.815Z,63.50
2023-05-19T01:20:29.133Z,63.70
2023-05-19T01:26:13.712Z,63.60
2023-05-19T01:31:20.631Z,63.50
2023-05-19T01:36:28.021Z,63.50
2023-05-19T01:41:38.632Z,63.30
2023-05-19T01:46:44.405Z,63.50
2023-05-19T01:51:51.622Z,63.60
2023-05-19T01:57:11.741Z,63.80
2023-05-19T02:02:35.768Z,64.00
2023-05-19T02:07:46.679Z,63.70
2023-05-19T02:12:55.090Z,63.50
2023-05-19T02:18:04.592Z,63.60
2023-05-19T02:23:08.277Z,64.40
2023-05-19T02:28:11.803Z,63.70
2023-05-19T02:33:17.379Z,63.70
2023-05-19T02:38:21.552Z,64.00
2023-05-19T02:43:25.006Z,63.60
2023-05-19T02:48:29.806Z,63.90
2023-05-19T02:53:33.883Z,64.00
2023-05-19T02:58:37.317Z,64.10
2023-05-19T03:03:42.302Z,64.00
2023-05-19T03:08:46.049Z,64.00
2023-05-19T03:13:49.594Z,63.90
2023-05-19T03:18:55.615Z,64.10
2023-05-19T03:23:59.267Z,63.90
2023-05-19T03:29:02.723Z,64.10
2023-05-19T03:34:09.952Z,64.00
2023-05-19T03:39:13.818Z,64.20
2023-05-19T03:44:17.879Z,64.10
2023-05-19T03:49:23.026Z,64.30
2023-05-19T03:55:04.829Z,64.30
2023-05-19T04:00:11.245Z,64.50
2023-05-19T04:05:17.862Z,64.50
2023-05-19T04:10:21.650Z,64.60
2023-05-19T04:15:28.021Z,64.60
2023-05-19T04:20:33.504Z,64.50
2023-05-19T04:25:37.442Z,64.50
2023-05-19T04:30:42.546Z,64.50
2023-05-19T04:35:47.396Z,64.50
2023-05-19T04:40:52.821Z,64.60
2023-05-19T04:45:58.163Z,64.50
2023-05-19T04:51:04.075Z,64.70
2023-05-19T04:56:08.479Z,64.50
2023-05-19T05:01:13.879Z,64.60
2023-05-19T05:06:18.820Z,64.40
2023-05-19T05:11:28.227Z,64.50
2023-05-19T05:16:34.132Z,64.50
2023-05-19T05:21:41.482Z,64.80
2023-05-19T05:26:46.925Z,64.70
2023-05-19T05:31:50.431Z,64.50
2023-05-19T05:36:55.848Z,64.60
2023-05-19T05:41:59.473Z,64.50
2023-05-19T05:47:05.422Z,64.70
2023-05-19T05:52:13.634Z,64.50
2023-05-19T05:57:23.149Z,64.70
2023-05-19T06:02:27.764Z,64.70
2023-05-19T06:07:35.063Z,64.80
2023-05-19T06:12:40.663Z,64.80
2023-05-19T06:17:44.795Z,64.90
2023-05-19T06:22:51.158Z,64.90
2023-05-19T06:27:57.042Z,64.90
2023-05-19T06:33:00.960Z,65.00
2023-05-19T06:38:06.271Z,65.10
2023-05-19T06:43:09.871Z,65.10
2023-05-19T06:48:30.662Z,65.00
2023-05-19T06:53:36.922Z,65.10
2023-05-19T06:58:44.407Z,58.60
2023-05-19T07:03:48.943Z,59.70
2023-05-19T07:08:53.942Z,61.80
2023-05-19T07:13:58.222Z,62.40
2023-05-19T07:19:04.944Z,61.70
2023-05-19T07:24:10.909Z,61.40
2023-05-19T07:29:14.470Z,60.60
2023-05-19T07:34:17.884Z,60.70
2023-05-19T07:39:23.566Z,59.80
2023-05-19T07:44:27.188Z,60.40
2023-05-19T07:49:30.689Z,60.40
2023-05-19T07:54:35.451Z,61.20
2023-05-19T07:59:38.952Z,62.40
2023-05-19T08:04:42.725Z,63.40
2023-05-19T08:09:47.604Z,63.60
2023-05-19T08:14:51.189Z,63.70
2023-05-19T08:19:54.708Z,63.50
2023-05-19T08:24:59.876Z,63.30
2023-05-19T08:30:03.415Z,63.00
2023-05-19T08:35:08.440Z,62.80
2023-05-19T08:40:18.849Z,62.90
2023-05-19T08:45:22.348Z,62.80
2023-05-19T08:50:32.359Z,62.40
2023-05-19T08:55:47.891Z,62.80
2023-05-19T09:00:52.235Z,62.70
2023-05-19T09:05:55.819Z,63.40
2023-05-19T09:11:00.679Z,63.50
2023-05-19T09:16:04.912Z,63.70
2023-05-19T09:21:10.321Z,64.00
2023-05-19T09:26:17.121Z,63.90
2023-05-19T09:31:22.573Z,64.30
2023-05-19T09:36:26.035Z,64.10
2023-05-19T09:41:31.215Z,64.80
2023-05-19T09:46:35.946Z,63.80
2023-05-19T09:51:39.479Z,63.70
2023-05-19T09:56:44.307Z,62.10
2023-05-19T10:01:48.547Z,60.30
2023-05-19T10:06:54.400Z,58.60
2023-05-19T10:12:00.687Z,57.80
2023-05-19T10:17:04.589Z,56.70
2023-05-19T10:22:10.816Z,56.90
2023-05-19T10:27:16.725Z,56.70
2023-05-19T10:32:26.236Z,56.80
2023-05-19T10:37:43.119Z,56.80
2023-05-19T10:43:07.447Z,57.20
2023-05-19T10:48:13.345Z,56.40
2023-05-19T10:53:21.036Z,56.00
2023-05-19T10:58:52.117Z,55.50
2023-05-19T11:03:57.315Z,56.00
2023-05-19T11:09:11.491Z,56.90
2023-05-19T11:14:18.693Z,57.80
2023-05-19T11:19:28.692Z,57.50
2023-05-19T11:24:36.988Z,57.60
2023-05-19T11:29:42.656Z,58.00
2023-05-19T11:34:46.726Z,57.10
2023-05-19T11:39:50.803Z,54.90
2023-05-19T11:44:57.957Z,54.00
2023-05-19T11:50:01.805Z,54.00
2023-05-19T11:55:08.587Z,53.20
2023-05-19T12:00:15.684Z,52.60
2023-05-19T12:05:24.963Z,52.70
2023-05-19T12:10:31.413Z,51.60
2023-05-19T12:15:36.534Z,51.60
2023-05-19T12:20:40.157Z,51.20
2023-05-19T12:25:43.739Z,51.20
2023-05-19T12:30:54.462Z,51.50
2023-05-19T12:35:58.355Z,51.30
2023-05-19T12:41:01.791Z,50.90
2023-05-19T12:46:13.521Z,50.00
2023-05-19T12:51:21.113Z,50.00
2023-05-19T12:56:28.109Z,50.30
2023-05-19T13:01:32.992Z,51.80
2023-05-19T13:06:36.524Z,52.20
2023-05-19T13:11:40.420Z,51.80
2023-05-19T13:16:46.243Z,51.00
2023-05-19T13:21:52.425Z,51.20
2023-05-19T13:26:58.164Z,51.20
2023-05-19T13:32:02.938Z,51.70
2023-05-19T13:37:10.016Z,51.40
2023-05-19T13:42:13.983Z,51.00
2023-05-19T13:47:18.853Z,49.80
2023-05-19T13:52:23.133Z,49.80
2023-05-19T13:57:26.893Z,50.70
2023-05-19T14:02:43.140Z,50.20
2023-05-19T14:13:57.526Z,50.30
2023-05-19T14:20:58.096Z,50.70
2023-05-19T14:37:55.353Z,48.20
2023-05-19T14:43:00.555Z,48.60
2023-05-19T14:48:04.074Z,48.40
2023-05-19T14:53:07.548Z,48.40
2023-05-19T14:58:26.971Z,49.00
2023-05-19T15:03:31.526Z,49.90
2023-05-19T15:08:35.005Z,50.50
2023-05-19T15:13:39.837Z,51.20
2023-05-19T15:18:43.249Z,52.00
2023-05-19T15:23:46.991Z,51.70
2023-05-19T15:28:53.589Z,52.50
2023-05-19T15:33:56.985Z,53.80
2023-05-19T15:39:00.522Z,55.00
2023-05-19T15:44:06.782Z,55.30
2023-05-19T15:49:12.961Z,53.40
2023-05-19T15:54:16.685Z,52.40
2023-05-19T15:59:21.460Z,52.00
2023-05-19T16:04:24.890Z,52.20
2023-05-19T16:09:28.346Z,51.70
2023-05-19T16:14:36.353Z,51.60
2023-05-19T16:19:39.795Z,51.00
2023-05-19T16:24:43.665Z,50.40
2023-05-19T16:29:48.828Z,48.90
2023-05-19T16:34:52.445Z,47.90
2023-05-19T16:39:55.963Z,48.50
2023-05-19T16:45:18.613Z,49.10
2023-05-19T16:50:23.425Z,50.10
2023-05-19T16:55:27.178Z,50.80
2023-05-19T17:00:32.474Z,51.70
2023-05-19T17:05:38.205Z,52.20
2023-05-19T17:10:41.674Z,52.70
2023-05-19T17:16:02.277Z,52.90
2023-05-19T17:21:06.373Z,53.40
2023-05-19T17:26:12.046Z,53.70
2023-05-19T17:31:17.116Z,53.80
2023-05-19T17:36:20.606Z,54.00
2023-05-19T17:41:24.079Z,54.20
2023-05-19T17:46:30.256Z,54.40
2023-05-19T17:51:34.319Z,55.30
2023-05-19T17:56:43.607Z,56.90
2023-05-19T18:01:49.173Z,58.00
2023-05-19T18:06:53.983Z,58.30
2023-05-19T18:12:01.952Z,58.30
2023-05-19T18:17:07.225Z,58.20
2023-05-19T18:22:14.859Z,58.20
2023-05-19T18:27:18.273Z,57.90
2023-05-19T18:32:23.123Z,57.70
2023-05-19T18:37:26.627Z,57.50
2023-05-19T18:42:30.134Z,57.10
2023-05-19T18:47:34.998Z,55.10
2023-05-19T18:52:38.464Z,53.60
2023-05-19T18:57:41.886Z,53.30
2023-05-19T19:02:46.865Z,52.50
2023-05-19T19:07:50.333Z,52.00
2023-05-19T19:12:53.838Z,51.50
2023-05-19T19:17:58.669Z,51.30
2023-05-19T19:23:05.089Z,51.20
2023-05-19T19:28:08.544Z,52.10
2023-05-19T19:33:13.403Z,51.80
2023-05-19T19:38:16.918Z,51.80
2023-05-19T19:43:20.604Z,52.10
2023-05-19T19:48:25.531Z,52.40
2023-05-19T19:53:29.094Z,52.60
2023-05-19T19:58:32.509Z,53.10
2023-05-19T20:03:38.166Z,53.50
2023-05-19T20:08:41.687Z,53.80
2023-05-19T20:13:45.155Z,53.80
2023-05-19T20:18:50.573Z,54.00
2023-05-19T20:23:54.106Z,54.00
2023-05-19T20:28:57.567Z,54.10
2023-05-19T20:34:02.417Z,54.50
2023-05-19T20:39:07.015Z,54.60
2023-05-19T20:44:11.651Z,54.80
2023-05-19T20:49:16.682Z,54.80
2023-05-19T20:54:20.623Z,54.80
2023-05-19T20:59:24.171Z,54.70
2023-05-19T21:04:29.042Z,54.80
2023-05-19T21:09:32.506Z,55.00
2023-05-19T21:14:35.946Z,54.90
2023-05-19T21:19:40.810Z,55.00
2023-05-19T21:24:44.186Z,55.20
2023-05-19T21:29:47.722Z,55.10
2023-05-19T21:34:52.558Z,55.20
2023-05-19T21:39:55.967Z,55.30
2023-05-19T21:44:59.397Z,55.30
2023-05-19T21:50:04.450Z,55.30
2023-05-19T21:55:11.075Z,55.40
2023-05-19T22:00:15.995Z,55.50
2023-05-19T22:05:20.831Z,55.50
2023-05-19T22:10:25.572Z,55.60
2023-05-19T22:15:39.771Z,55.50
2023-05-19T22:20:44.648Z,55.80
2023-05-19T22:25:48.105Z,55.80
2023-05-19T22:30:51.492Z,56.40
2023-05-19T22:35:56.254Z,56.80
2023-05-19T22:40:59.706Z,57.00
2023-05-19T22:46:03.154Z,57.00
2023-05-19T22:51:08.102Z,57.50
2023-05-19T22:56:11.519Z,57.50
2023-05-19T23:01:15.025Z,57.80
2023-05-19T23:06:19.878Z,58.00
2023-05-19T23:11:23.291Z,58.00
2023-05-19T23:16:26.719Z,58.40
2023-05-19T23:21:32.477Z,58.40
2023-05-19T23:26:35.942Z,58.50
2023-05-19T23:31:39.480Z,58.70
2023-05-19T23:36:44.293Z,59.10
2023-05-19T23:41:47.711Z,59.00
2023-05-19T23:46:51.388Z,59.60
2023-05-19T23:51:56.310Z,59.60
2023-05-19T23:56:59.755Z,59.80
